createdAt,value
2023-02-17T00:01:16.238Z,100622.84
2023-02-17T00:03:44.129Z,100614.25
2023-02-17T00:06:12.095Z,100611.69
2023-02-17T00:08:40.581Z,100612.53
2023-02-17T00:11:08.676Z,100626.31
2023-02-17T00:13:36.709Z,100622.84
2023-02-17T00:16:12.591Z,100617.69
2023-02-17T00:18:40.574Z,100623.69
2023-02-17T00:21:18.902Z,100623.66
2023-02-17T00:23:47.395Z,100627.97
2023-02-17T00:26:16.009Z,100630.50
2023-02-17T00:28:44.340Z,100626.22
2023-02-17T00:31:15.364Z,100629.69
2023-02-17T00:33:43.196Z,100638.28
2023-02-17T00:36:15.772Z,100642.56
2023-02-17T00:38:44.057Z,100646.00
2023-02-17T00:41:12.200Z,100633.97
2023-02-17T00:43:40.649Z,100640.84
2023-02-17T00:46:08.645Z,100641.72
2023-02-17T00:48:37.166Z,100656.28
2023-02-17T00:51:05.716Z,100652.84
2023-02-17T00:53:35.582Z,100649.41
2023-02-17T00:56:03.847Z,100657.97
2023-02-17T00:58:32.126Z,100651.97
2023-02-17T01:00:59.968Z,100651.94
2023-02-17T01:03:28.478Z,100650.19
2023-02-17T01:05:56.776Z,100655.38
2023-02-17T01:08:26.059Z,100652.81
2023-02-17T01:10:54.209Z,100652.81
2023-02-17T01:13:22.282Z,100657.97
2023-02-17T01:15:52.241Z,100653.63
2023-02-17T01:18:23.179Z,100651.91
2023-02-17T01:20:51.965Z,100669.91
2023-02-17T01:23:20.069Z,100673.28
2023-02-17T01:25:48.185Z,100676.66
2023-02-17T01:28:18.434Z,100672.31
2023-02-17T01:30:47.847Z,100671.41
2023-02-17T01:33:15.994Z,100672.25
2023-02-17T01:35:44.308Z,100679.94
2023-02-17T01:38:13.369Z,100684.22
2023-02-17T01:40:48.597Z,100679.94
2023-02-17T01:43:18.019Z,100667.06
2023-02-17T01:45:49.651Z,100663.69
2023-02-17T01:48:20.478Z,100658.63
2023-02-17T01:50:55.029Z,100669.00
2023-02-17T01:53:26.660Z,100674.22
2023-02-17T01:55:54.752Z,100669.09
2023-02-17T01:58:23.628Z,100658.00
2023-02-17T02:00:51.457Z,100660.63
2023-02-17T02:03:19.876Z,100664.97
2023-02-17T02:05:48.185Z,100654.66
2023-02-17T02:08:16.342Z,100659.81
2023-02-17T02:10:44.527Z,100674.38
2023-02-17T02:13:12.672Z,100661.41
2023-02-17T02:16:08.599Z,100650.94
2023-02-17T02:18:50.325Z,100652.66
2023-02-17T02:21:33.486Z,100662.09
2023-02-17T02:24:23.129Z,100650.03
2023-02-17T02:27:26.757Z,100656.88
2023-02-17T02:30:30.131Z,100656.72
2023-02-17T02:33:00.192Z,100654.84
2023-02-17T02:35:27.873Z,100656.28
2023-02-17T02:38:12.618Z,100651.66
2023-02-17T02:40:43.795Z,100653.06
2023-02-17T02:43:14.874Z,100647.53
2023-02-17T02:45:43.162Z,100646.31
2023-02-17T02:48:11.402Z,100629.53
2023-02-17T02:50:49.219Z,100624.09
2023-02-17T02:53:26.282Z,100626.50
2023-02-17T02:56:15.574Z,100621.94
2023-02-17T02:59:04.264Z,100622.53
2023-02-17T03:01:42.320Z,100630.00
2023-02-17T03:04:36.390Z,100631.66
2023-02-17T03:07:21.565Z,100641.88
2023-02-17T03:09:55.391Z,100647.66
2023-02-17T03:12:23.506Z,100643.19
2023-02-17T03:14:53.908Z,100634.50
2023-02-17T03:17:23.474Z,100640.22
2023-02-17T03:19:51.594Z,100654.63
2023-02-17T03:22:24.736Z,100653.31
2023-02-17T03:24:52.690Z,100642.69
2023-02-17T03:27:20.662Z,100641.53
2023-02-17T03:29:49.320Z,100649.69
2023-02-17T03:32:19.256Z,100644.59
2023-02-17T03:34:47.380Z,100651.63
2023-02-17T03:37:15.179Z,100644.66
2023-02-17T03:39:43.261Z,100644.03
2023-02-17T03:42:11.742Z,100656.25
2023-02-17T03:44:39.547Z,100632.81
2023-02-17T03:47:07.731Z,100634.38
2023-02-17T03:49:35.472Z,100639.84
2023-02-17T03:52:03.352Z,100646.47
2023-02-17T03:54:31.453Z,100642.63
2023-02-17T03:57:01.519Z,100642.44
2023-02-17T03:59:29.579Z,100648.25
2023-02-17T04:01:57.957Z,100635.69
2023-02-17T04:04:25.775Z,100641.84
2023-02-17T04:06:53.862Z,100638.16
2023-02-17T04:09:21.919Z,100624.03
2023-02-17T04:11:49.670Z,100629.31
2023-02-17T04:14:17.930Z,100625.19
2023-02-17T04:16:45.646Z,100614.81
2023-02-17T04:19:13.820Z,100625.00
2023-02-17T04:21:41.682Z,100623.31
2023-02-17T04:24:09.536Z,100620.53
2023-02-17T04:26:37.166Z,100628.00
2023-02-17T04:29:05.849Z,100618.44
2023-02-17T04:31:34.099Z,100617.47
2023-02-17T04:34:01.870Z,100617.19
2023-02-17T04:36:30.044Z,100607.41
2023-02-17T04:38:57.779Z,100589.78
2023-02-17T04:41:25.686Z,100591.25
2023-02-17T04:43:53.538Z,100586.94
2023-02-17T04:46:21.645Z,100583.16
2023-02-17T04:48:49.511Z,100588.25
2023-02-17T04:51:17.333Z,100587.78
2023-02-17T04:53:45.433Z,100583.38
2023-02-17T04:56:13.253Z,100593.75
2023-02-17T04:58:41.367Z,100589.41
2023-02-17T05:01:09.522Z,100584.69
2023-02-17T05:03:37.434Z,100585.09
2023-02-17T05:06:06.019Z,100572.94
2023-02-17T05:08:34.264Z,100572.28
2023-02-17T05:11:02.349Z,100569.81
2023-02-17T05:13:30.346Z,100565.78
2023-02-17T05:15:58.160Z,100560.63
2023-02-17T05:18:26.139Z,100554.97
2023-02-17T05:20:54.429Z,100564.28
2023-02-17T05:23:22.826Z,100568.72
2023-02-17T05:25:50.734Z,100564.13
2023-02-17T05:28:18.773Z,100561.13
2023-02-17T05:30:48.853Z,100555.84
2023-02-17T05:33:16.947Z,100559.50
2023-02-17T05:35:44.787Z,100560.44
2023-02-17T05:38:12.826Z,100551.25
2023-02-17T05:40:41.082Z,100548.69
2023-02-17T05:43:09.260Z,100541.56
2023-02-17T05:45:37.072Z,100538.94
2023-02-17T05:48:05.041Z,100535.41
2023-02-17T05:50:32.977Z,100536.31
2023-02-17T05:53:03.645Z,100538.88
2023-02-17T05:55:32.147Z,100531.56
2023-02-17T05:57:59.913Z,100521.81
2023-02-17T06:00:29.293Z,100523.19
2023-02-17T06:02:57.103Z,100529.81
2023-02-17T06:05:25.142Z,100505.78
2023-02-17T06:07:53.358Z,100511.50
2023-02-17T06:10:21.249Z,100509.06
2023-02-17T06:12:49.253Z,100503.59
2023-02-17T06:15:17.084Z,100492.69
2023-02-17T06:17:45.447Z,100491.28
2023-02-17T06:20:13.516Z,100486.03
2023-02-17T06:22:42.681Z,100483.88
2023-02-17T06:25:10.912Z,100466.72
2023-02-17T06:27:38.987Z,100467.94
2023-02-17T06:30:09.124Z,100461.13
2023-02-17T06:32:37.282Z,100460.50
2023-02-17T06:35:05.493Z,100463.31
2023-02-17T06:37:33.305Z,100453.94
2023-02-17T06:40:01.437Z,100456.75
2023-02-17T06:42:29.442Z,100458.00
2023-02-17T06:44:57.502Z,100447.28
2023-02-17T06:47:25.221Z,100451.09
2023-02-17T06:49:53.067Z,100448.91
2023-02-17T06:52:21.564Z,100454.31
2023-02-17T06:54:49.836Z,100458.03
2023-02-17T06:57:18.020Z,100457.28
2023-02-17T06:59:45.801Z,100452.91
2023-02-17T07:02:14.814Z,100451.06
2023-02-17T07:04:42.970Z,100444.69
2023-02-17T07:07:10.981Z,100434.66
2023-02-17T07:09:39.091Z,100436.63
2023-02-17T07:12:07.076Z,100439.22
2023-02-17T07:14:35.213Z,100435.75
2023-02-17T07:17:03.636Z,100436.97
2023-02-17T07:19:31.546Z,100435.91
2023-02-17T07:21:59.667Z,100440.13
2023-02-17T07:24:27.708Z,100433.00
2023-02-17T07:26:56.521Z,100433.88
2023-02-17T07:29:24.280Z,100438.53
2023-02-17T07:31:52.375Z,100425.19
2023-02-17T07:34:20.424Z,100430.03
2023-02-17T07:36:48.219Z,100420.72
2023-02-17T07:39:16.929Z,100420.00
2023-02-17T07:41:44.973Z,100403.47
2023-02-17T07:44:13.064Z,100401.81
2023-02-17T07:46:41.309Z,100377.19
2023-02-17T07:49:09.048Z,100383.16
2023-02-17T07:51:37.115Z,100388.31
2023-02-17T07:54:05.355Z,100381.84
2023-02-17T07:56:34.478Z,100383.00
2023-02-17T07:59:02.483Z,100376.97
2023-02-17T08:01:30.351Z,100382.22
2023-02-17T08:03:58.680Z,100378.63
2023-02-17T08:06:27.230Z,100383.09
2023-02-17T08:09:13.645Z,100371.84
2023-02-17T08:12:00.659Z,100378.41
2023-02-17T08:14:30.052Z,100380.78
2023-02-17T08:16:58.350Z,100369.53
2023-02-17T08:19:39.735Z,100364.94
2023-02-17T08:22:14.886Z,100364.47
2023-02-17T08:24:42.651Z,100367.72
2023-02-17T08:27:10.484Z,100380.06
2023-02-17T08:29:38.709Z,100375.31
2023-02-17T08:32:06.885Z,100377.88
2023-02-17T08:34:34.717Z,100370.75
2023-02-17T08:37:03.460Z,100373.25
2023-02-17T08:39:31.321Z,100371.53
2023-02-17T08:41:59.335Z,100381.03
2023-02-17T08:44:27.631Z,100375.44
2023-02-17T08:46:55.759Z,100379.28
2023-02-17T08:49:25.383Z,100365.50
2023-02-17T08:51:53.375Z,100359.19
2023-02-17T08:54:21.117Z,100367.03
2023-02-17T08:56:48.889Z,100348.38
2023-02-17T08:59:16.999Z,100350.19
2023-02-17T09:01:44.744Z,100337.31
2023-02-17T09:04:14.154Z,100347.13
2023-02-17T09:06:48.552Z,100360.78
2023-02-17T09:09:17.907Z,100357.69
2023-02-17T09:11:45.876Z,100359.16
2023-02-17T09:14:13.605Z,100356.16
2023-02-17T09:16:41.862Z,100359.84
2023-02-17T09:19:09.906Z,100356.56
2023-02-17T09:21:37.737Z,100358.34
2023-02-17T09:24:06.570Z,100379.63
2023-02-17T09:26:37.839Z,100371.06
2023-02-17T09:29:06.196Z,100366.31
2023-02-17T09:31:35.181Z,100366.41
2023-02-17T09:34:04.694Z,100378.50
2023-02-17T09:36:33.931Z,100360.97
2023-02-17T09:39:02.208Z,100359.03
2023-02-17T09:41:38.920Z,100365.34
2023-02-17T09:44:39.275Z,100365.69
2023-02-17T09:47:45.868Z,100369.44
2023-02-17T09:50:17.719Z,100372.22
2023-02-17T09:52:54.020Z,100373.25
2023-02-17T09:55:34.277Z,100376.06
2023-02-17T09:58:10.362Z,100377.84
2023-02-17T10:00:48.412Z,100380.00
2023-02-17T10:04:16.292Z,100382.72
2023-02-17T10:06:47.158Z,100382.22
2023-02-17T10:09:25.188Z,100379.59
2023-02-17T10:12:06.117Z,100375.56
2023-02-17T10:14:42.110Z,100378.34
2023-02-17T10:17:32.894Z,100381.66
2023-02-17T10:20:12.999Z,100382.16
2023-02-17T10:22:41.125Z,100379.91
2023-02-17T10:25:16.865Z,100379.72
2023-02-17T10:28:11.438Z,100372.69
2023-02-17T10:30:41.951Z,100366.94
2023-02-17T10:33:24.573Z,100359.63
2023-02-17T10:35:53.022Z,100362.91
2023-02-17T10:38:51.894Z,100372.84
2023-02-17T10:41:27.911Z,100374.97
2023-02-17T10:43:56.055Z,100366.16
2023-02-17T10:46:28.216Z,100368.09
2023-02-17T10:48:56.954Z,100367.28
2023-02-17T10:51:29.726Z,100369.13
2023-02-17T10:54:06.588Z,100369.13
2023-02-17T10:56:44.688Z,100363.72
2023-02-17T10:59:19.483Z,100366.31
2023-02-17T11:01:48.004Z,100363.72
2023-02-17T11:04:16.475Z,100365.34
2023-02-17T11:06:55.326Z,100374.09
2023-02-17T11:09:29.140Z,100370.72
2023-02-17T11:12:01.331Z,100369.84
2023-02-17T11:14:32.984Z,100381.59
2023-02-17T11:17:02.459Z,100370.84
2023-02-17T11:19:34.676Z,100376.28
2023-02-17T11:22:04.216Z,100379.91
2023-02-17T11:24:33.181Z,100379.13
2023-02-17T11:27:11.950Z,100377.03
2023-02-17T11:29:39.730Z,100376.69
2023-02-17T11:32:09.425Z,100376.47
2023-02-17T11:34:39.992Z,100384.09
2023-02-17T11:37:10.500Z,100387.53
2023-02-17T11:39:48.760Z,100389.03
2023-02-17T11:42:17.467Z,100394.72
2023-02-17T11:44:45.747Z,100389.44
2023-02-17T11:47:25.406Z,100398.81
2023-02-17T11:50:31.683Z,100395.63
2023-02-17T11:53:44.232Z,100390.47
2023-02-17T11:56:23.508Z,100394.50
2023-02-17T11:59:13.785Z,100398.34
2023-02-17T12:01:47.110Z,100385.41
2023-02-17T12:04:27.214Z,100399.25
2023-02-17T12:07:32.426Z,100391.09
2023-02-17T12:10:12.305Z,100398.97
2023-02-17T12:13:19.798Z,100409.25
2023-02-17T12:15:57.781Z,100411.69
2023-02-17T12:18:44.892Z,100397.88
2023-02-17T12:21:28.263Z,100415.94
2023-02-17T12:24:19.431Z,100389.41
2023-02-17T12:26:50.648Z,100405.06
2023-02-17T12:29:33.572Z,100407.53
2023-02-17T12:32:20.567Z,100400.56
2023-02-17T12:34:53.409Z,100417.22
2023-02-17T12:37:25.880Z,100422.56
2023-02-17T12:40:04.950Z,100418.06
2023-02-17T12:42:52.361Z,100414.84
2023-02-17T12:45:22.936Z,100402.50
2023-02-17T12:48:02.716Z,100422.19
2023-02-17T12:50:38.340Z,100409.06
2023-02-17T12:53:11.187Z,100405.63
2023-02-17T12:55:48.921Z,100409.97
2023-02-17T12:58:18.050Z,100404.94
2023-02-17T13:00:49.226Z,100405.72
2023-02-17T13:03:17.348Z,100416.91
2023-02-17T13:05:50.915Z,100409.84
2023-02-17T13:08:23.656Z,100408.19
2023-02-17T13:11:08.939Z,100407.09
2023-02-17T13:13:36.997Z,100425.13
2023-02-17T13:16:13.070Z,100411.31
2023-02-17T13:18:50.405Z,100416.75
2023-02-17T13:21:23.106Z,100414.81
2023-02-17T13:24:03.889Z,100416.53
2023-02-17T13:26:39.094Z,100404.91
2023-02-17T13:29:20.885Z,100406.31
2023-02-17T13:31:59.409Z,100412.94
2023-02-17T13:34:42.973Z,100419.47
2023-02-17T13:37:26.928Z,100424.44
2023-02-17T13:39:55.320Z,100409.63
2023-02-17T13:42:44.541Z,100414.56
2023-02-17T13:45:15.616Z,100427.13
2023-02-17T13:47:43.566Z,100430.59
2023-02-17T13:50:33.993Z,100428.53
2023-02-17T13:53:23.212Z,100428.19
2023-02-17T13:55:51.558Z,100429.63
2023-02-17T13:58:28.450Z,100410.91
2023-02-17T14:00:56.508Z,100433.81
2023-02-17T14:03:34.229Z,100408.97
2023-02-17T14:06:02.684Z,100403.63
2023-02-17T14:08:41.299Z,100405.13
2023-02-17T14:11:11.488Z,100407.63
2023-02-17T14:13:40.861Z,100413.13
2023-02-17T14:16:08.877Z,100407.88
2023-02-17T14:18:38.954Z,100411.19
2023-02-17T14:21:24.289Z,100410.81
2023-02-17T14:23:53.995Z,100405.34
2023-02-17T14:26:35.563Z,100405.56
2023-02-17T14:29:05.737Z,100412.13
2023-02-17T14:31:44.774Z,100416.00
2023-02-17T14:34:21.935Z,100410.22
2023-02-17T14:36:50.745Z,100405.25
2023-02-17T14:39:18.590Z,100402.53
2023-02-17T14:41:46.734Z,100402.50
2023-02-17T14:44:14.721Z,100398.00
2023-02-17T14:46:43.004Z,100399.78
2023-02-17T14:49:10.858Z,100397.28
2023-02-17T14:51:39.131Z,100392.22
2023-02-17T14:54:15.373Z,100397.34
2023-02-17T14:57:08.192Z,100393.81
2023-02-17T14:59:36.040Z,100386.00
2023-02-17T15:02:03.812Z,100383.13
2023-02-17T15:04:31.893Z,100383.75
2023-02-17T15:07:00.025Z,100377.41
2023-02-17T15:09:31.536Z,100372.84
2023-02-17T15:11:59.759Z,100382.28
2023-02-17T15:14:27.847Z,100381.50
2023-02-17T15:16:55.692Z,100384.34
2023-02-17T15:19:25.079Z,100386.34
2023-02-17T15:21:53.196Z,100385.75
2023-02-17T15:24:23.792Z,100380.63
2023-02-17T15:26:51.939Z,100376.38
2023-02-17T15:29:22.068Z,100390.31
2023-02-17T15:31:50.973Z,100382.63
2023-02-17T15:34:20.806Z,100382.78
2023-02-17T15:36:48.856Z,100388.91
2023-02-17T15:39:18.719Z,100384.59
2023-02-17T15:41:47.592Z,100375.13
2023-02-17T15:44:20.560Z,100372.59
2023-02-17T15:46:50.838Z,100378.53
2023-02-17T15:49:18.626Z,100374.16
2023-02-17T15:51:46.675Z,100378.53
2023-02-17T15:54:19.758Z,100368.25
2023-02-17T15:56:50.183Z,100369.00
2023-02-17T15:59:25.971Z,100360.22
2023-02-17T16:01:56.485Z,100367.81
2023-02-17T16:04:24.511Z,100376.47
2023-02-17T16:06:52.314Z,100369.59
2023-02-17T16:09:23.120Z,100379.94
2023-02-17T16:11:53.036Z,100369.50
2023-02-17T16:14:26.029Z,100371.91
2023-02-17T16:16:54.440Z,100371.81
2023-02-17T16:19:23.477Z,100378.81
2023-02-17T16:21:51.432Z,100365.91
2023-02-17T16:24:20.289Z,100357.91
2023-02-17T16:26:48.622Z,100368.78
2023-02-17T16:29:21.455Z,100367.50
2023-02-17T16:31:49.961Z,100365.47
2023-02-17T16:34:23.031Z,100361.09
2023-02-17T16:36:51.887Z,100360.25
2023-02-17T16:39:23.294Z,100367.44
2023-02-17T16:41:51.178Z,100354.66
2023-02-17T16:44:21.234Z,100350.34
2023-02-17T16:46:54.676Z,100354.31
2023-02-17T16:49:37.134Z,100350.38
2023-02-17T16:52:17.911Z,100350.28
2023-02-17T16:54:46.003Z,100356.50
2023-02-17T16:57:17.443Z,100348.72
2023-02-17T16:59:46.365Z,100351.41
2023-02-17T17:02:14.596Z,100348.91
2023-02-17T17:04:42.804Z,100346.34
2023-02-17T17:07:13.791Z,100348.22
2023-02-17T17:09:43.065Z,100344.78
2023-02-17T17:12:11.859Z,100344.69
2023-02-17T17:14:39.943Z,100341.22
2023-02-17T17:17:10.917Z,100344.50
2023-02-17T17:19:39.417Z,100344.38
2023-02-17T17:22:07.309Z,100340.94
2023-02-17T17:24:35.374Z,100350.63
2023-02-17T17:27:03.763Z,100347.94
2023-02-17T17:29:31.508Z,100347.88
2023-02-17T17:31:59.294Z,100349.16
2023-02-17T17:34:28.338Z,100344.47
2023-02-17T17:36:56.108Z,100343.91
2023-02-17T17:39:24.653Z,100339.97
2023-02-17T17:41:52.834Z,100340.41
2023-02-17T17:44:21.027Z,100338.94
2023-02-17T17:46:48.907Z,100345.41
2023-02-17T17:49:18.849Z,100341.09
2023-02-17T17:51:46.954Z,100349.28
2023-02-17T17:54:15.065Z,100340.59
2023-02-17T17:56:43.712Z,100348.97
2023-02-17T17:59:12.690Z,100342.66
2023-02-17T18:01:40.573Z,100345.44
2023-02-17T18:04:09.841Z,100345.44
2023-02-17T18:06:42.484Z,100343.63
2023-02-17T18:09:25.732Z,100337.25
2023-02-17T18:11:59.069Z,100338.81
2023-02-17T18:14:27.207Z,100339.56
2023-02-17T18:16:55.413Z,100333.97
2023-02-17T18:19:24.002Z,100334.56
2023-02-17T18:21:52.045Z,100332.22
2023-02-17T18:24:20.139Z,100337.97
2023-02-17T18:26:48.366Z,100337.50
2023-02-17T18:29:16.767Z,100330.63
2023-02-17T18:31:45.543Z,100331.34
2023-02-17T18:34:13.912Z,100342.56
2023-02-17T18:36:41.724Z,100337.31
2023-02-17T18:39:09.804Z,100328.31
2023-02-17T18:41:38.312Z,100328.94
2023-02-17T18:44:06.862Z,100334.38
2023-02-17T18:46:35.114Z,100324.38
2023-02-17T18:49:02.907Z,100316.72
2023-02-17T18:51:31.262Z,100328.88
2023-02-17T18:54:00.426Z,100335.94
2023-02-17T18:56:29.826Z,100328.31
2023-02-17T18:58:58.131Z,100319.56
2023-02-17T19:01:28.707Z,100316.47
2023-02-17T19:03:56.854Z,100321.19
2023-02-17T19:06:26.406Z,100321.59
2023-02-17T19:08:54.256Z,100322.66
2023-02-17T19:11:23.205Z,100317.78
2023-02-17T19:13:51.234Z,100311.03
2023-02-17T19:16:27.870Z,100312.94
2023-02-17T19:18:56.755Z,100304.56
2023-02-17T19:21:24.791Z,100296.03
2023-02-17T19:23:52.897Z,100297.94
2023-02-17T19:26:21.647Z,100298.09
2023-02-17T19:28:50.022Z,100305.06
2023-02-17T19:31:19.161Z,100299.09
2023-02-17T19:33:47.563Z,100294.53
2023-02-17T19:36:17.700Z,100297.81
2023-02-17T19:38:46.273Z,100301.25
2023-02-17T19:41:14.405Z,100295.31
2023-02-17T19:43:42.236Z,100299.00
2023-02-17T19:46:14.265Z,100302.00
2023-02-17T19:48:42.112Z,100294.59
2023-02-17T19:51:10.324Z,100302.75
2023-02-17T19:53:38.093Z,100306.47
2023-02-17T19:56:17.639Z,100305.03
2023-02-17T19:58:45.727Z,100302.72
2023-02-17T20:01:32.889Z,100306.44
2023-02-17T20:04:02.441Z,100298.88
2023-02-17T20:06:32.161Z,100281.63
2023-02-17T20:09:01.663Z,100287.81
2023-02-17T20:11:29.684Z,100286.09
2023-02-17T20:13:58.043Z,100288.78
2023-02-17T20:16:26.500Z,100282.91
2023-02-17T20:18:56.049Z,100274.50
2023-02-17T20:21:25.596Z,100282.13
2023-02-17T20:23:53.458Z,100288.22
2023-02-17T20:26:24.173Z,100280.59
2023-02-17T20:28:52.068Z,100284.09
2023-02-17T20:31:20.802Z,100280.78
2023-02-17T20:33:48.699Z,100276.34
2023-02-17T20:36:16.925Z,100272.88
2023-02-17T20:38:45.796Z,100265.81
2023-02-17T20:41:15.486Z,100272.75
2023-02-17T20:43:43.730Z,100266.72
2023-02-17T20:46:21.715Z,100267.63
2023-02-17T20:48:50.197Z,100265.22
2023-02-17T20:51:18.272Z,100259.25
2023-02-17T20:53:46.542Z,100265.41
2023-02-17T20:56:15.701Z,100259.50
2023-02-17T20:58:43.546Z,100260.59
2023-02-17T21:01:11.599Z,100266.88
2023-02-17T21:03:39.909Z,100259.22
2023-02-17T21:06:33.205Z,100265.44
2023-02-17T21:09:02.844Z,100264.72
2023-02-17T21:11:30.727Z,100251.88
2023-02-17T21:13:58.651Z,100250.16
2023-02-17T21:16:28.636Z,100251.88
2023-02-17T21:18:56.811Z,100244.06
2023-02-17T21:21:24.944Z,100246.66
2023-02-17T21:23:52.752Z,100244.88
2023-02-17T21:26:21.093Z,100248.25
2023-02-17T21:28:49.342Z,100244.69
2023-02-17T21:31:17.730Z,100250.78
2023-02-17T21:33:46.037Z,100261.09
2023-02-17T21:36:15.542Z,100257.88
2023-02-17T21:38:43.521Z,100256.16
2023-02-17T21:41:14.865Z,100253.56
2023-02-17T21:44:01.680Z,100262.31
2023-02-17T21:46:31.008Z,100254.47
2023-02-17T21:48:59.569Z,100263.03
2023-02-17T21:51:27.736Z,100256.94
2023-02-17T21:53:55.936Z,100255.00
2023-02-17T21:56:23.705Z,100247.75
2023-02-17T21:58:53.569Z,100253.38
2023-02-17T22:01:21.623Z,100261.81
2023-02-17T22:03:49.706Z,100258.00
2023-02-17T22:06:28.621Z,100256.00
2023-02-17T22:08:57.121Z,100255.56
2023-02-17T22:11:27.258Z,100245.69
2023-02-17T22:13:59.793Z,100251.84
2023-02-17T22:16:28.313Z,100248.59
2023-02-17T22:18:56.133Z,100248.75
2023-02-17T22:21:24.360Z,100254.13
2023-02-17T22:23:52.141Z,100247.28
2023-02-17T22:26:24.083Z,100249.09
2023-02-17T22:28:52.234Z,100233.56
2023-02-17T22:31:22.202Z,100246.53
2023-02-17T22:33:50.419Z,100253.34
2023-02-17T22:36:21.662Z,100252.31
2023-02-17T22:38:50.023Z,100253.75
2023-02-17T22:41:20.069Z,100260.47
2023-02-17T22:43:48.065Z,100270.53
2023-02-17T22:46:16.915Z,100260.00
2023-02-17T22:48:46.050Z,100260.81
2023-02-17T22:51:20.537Z,100256.81
2023-02-17T22:53:48.733Z,100259.78
2023-02-17T22:56:17.102Z,100252.50
2023-02-17T22:58:45.114Z,100254.56
2023-02-17T23:01:13.789Z,100266.06
2023-02-17T23:03:41.816Z,100272.19
2023-02-17T23:06:23.528Z,100274.59
2023-02-17T23:08:51.827Z,100259.66
2023-02-17T23:11:41.925Z,100258.56
2023-02-17T23:14:10.843Z,100256.72
2023-02-17T23:16:38.731Z,100257.53
2023-02-17T23:19:08.455Z,100263.69
2023-02-17T23:21:36.723Z,100264.66
2023-02-17T23:24:05.059Z,100269.84
2023-02-17T23:26:32.838Z,100274.31
2023-02-17T23:29:00.802Z,100267.44
2023-02-17T23:31:28.956Z,100271.09
2023-02-17T23:33:57.318Z,100266.78
2023-02-17T23:36:24.987Z,100268.56
2023-02-17T23:38:53.006Z,100274.72
2023-02-17T23:41:21.074Z,100274.78
2023-02-17T23:43:48.880Z,100271.53
2023-02-17T23:46:16.700Z,100274.16
2023-02-17T23:48:45.039Z,100276.00
2023-02-17T23:51:18.982Z,100271.75
2023-02-17T23:53:47.132Z,100280.53
2023-02-17T23:56:16.885Z,100284.16
2023-02-17T23:58:45.086Z,100280.09
